createdAt,value
2022-08-27T00:01:22.611Z,48.25
2022-08-27T00:04:07.270Z,48.31
2022-08-27T00:06:52.119Z,48.54
2022-08-27T00:09:48.124Z,48.61
2022-08-27T00:12:25.446Z,48.76
2022-08-27T00:15:19.559Z,48.82
2022-08-27T00:18:14.272Z,49.09
2022-08-27T00:21:08.515Z,49.16
2022-08-27T00:23:45.491Z,49.28
2022-08-27T00:26:43.188Z,49.64
2022-08-27T00:29:20.378Z,49.67
2022-08-27T00:32:14.332Z,49.87
2022-08-27T00:34:52.151Z,50.09
2022-08-27T00:37:25.920Z,50.29
2022-08-27T00:39:59.676Z,50.44
2022-08-27T00:42:53.803Z,50.63
2022-08-27T00:45:27.872Z,50.70
2022-08-27T00:48:03.252Z,50.87
2022-08-27T00:50:39.236Z,51.08
2022-08-27T00:53:17.603Z,51.19
2022-08-27T00:55:56.837Z,51.16
2022-08-27T00:58:53.297Z,51.41
2022-08-27T01:01:31.033Z,51.38
2022-08-27T01:04:25.018Z,51.48
2022-08-27T01:06:58.900Z,51.44
2022-08-27T01:09:53.831Z,51.52
2022-08-27T01:12:27.578Z,51.65
2022-08-27T01:15:02.116Z,51.69
2022-08-27T01:17:36.404Z,52.06
2022-08-27T01:20:16.420Z,51.97
2022-08-27T01:23:12.067Z,52.05
2022-08-27T01:25:47.182Z,52.23
2022-08-27T01:28:35.813Z,52.31
2022-08-27T01:31:13.534Z,52.45
2022-08-27T01:34:09.195Z,52.69
2022-08-27T01:36:42.836Z,52.76
2022-08-27T01:39:25.849Z,52.90
2022-08-27T01:42:06.893Z,52.97
2022-08-27T01:44:51.282Z,53.22
2022-08-27T01:47:31.442Z,53.28
2022-08-27T01:50:11.249Z,53.52
2022-08-27T01:52:45.370Z,53.81
2022-08-27T01:55:21.046Z,53.98
2022-08-27T01:57:55.455Z,54.06
2022-08-27T02:00:32.064Z,54.29
2022-08-27T02:03:06.796Z,54.47
2022-08-27T02:05:44.936Z,54.59
2022-08-27T02:08:22.692Z,54.68
2022-08-27T02:10:56.628Z,54.89
2022-08-27T02:13:30.442Z,55.02
2022-08-27T02:16:04.450Z,55.21
2022-08-27T02:18:41.753Z,55.29
2022-08-27T02:21:20.636Z,55.49
2022-08-27T02:23:55.515Z,55.64
2022-08-27T02:26:32.048Z,55.97
2022-08-27T02:29:06.119Z,55.99
2022-08-27T02:32:00.268Z,56.02
2022-08-27T02:34:33.343Z,56.27
2022-08-27T02:37:07.671Z,56.32
2022-08-27T02:39:45.592Z,56.30
2022-08-27T02:42:19.913Z,56.18
2022-08-27T02:44:57.191Z,56.49
2022-08-27T02:47:39.514Z,56.72
2022-08-27T02:50:17.569Z,56.81
2022-08-27T02:52:51.284Z,56.78
2022-08-27T02:55:25.587Z,56.84
2022-08-27T02:57:59.357Z,57.04
2022-08-27T03:00:35.520Z,57.04
2022-08-27T03:03:11.039Z,57.00
2022-08-27T03:05:46.185Z,57.34
2022-08-27T03:08:19.596Z,57.34
2022-08-27T03:10:57.091Z,57.66
2022-08-27T03:13:32.695Z,57.68
2022-08-27T03:16:06.671Z,57.90
2022-08-27T03:18:43.843Z,58.16
2022-08-27T03:21:24.598Z,58.14
2022-08-27T03:24:18.693Z,58.12
2022-08-27T03:26:54.940Z,58.30
2022-08-27T03:29:31.435Z,58.39
2022-08-27T03:32:10.708Z,58.35
2022-08-27T03:34:58.584Z,58.62
2022-08-27T03:37:32.336Z,58.69
2022-08-27T03:40:08.466Z,58.81
2022-08-27T03:42:42.475Z,59.05
2022-08-27T03:45:27.668Z,59.07
2022-08-27T03:48:01.359Z,59.14
2022-08-27T03:50:35.171Z,59.37
2022-08-27T03:53:08.992Z,59.34
2022-08-27T03:55:42.867Z,59.49
2022-08-27T03:58:19.760Z,59.65
2022-08-27T04:00:53.605Z,59.62
2022-08-27T04:03:27.364Z,59.71
2022-08-27T04:06:03.802Z,59.98
2022-08-27T04:08:39.632Z,60.07
2022-08-27T04:11:34.995Z,60.18
2022-08-27T04:14:20.756Z,60.29
2022-08-27T04:17:20.959Z,60.29
2022-08-27T04:19:56.241Z,60.41
2022-08-27T04:22:30.677Z,60.47
2022-08-27T04:25:04.631Z,60.27
2022-08-27T04:27:47.609Z,60.52
2022-08-27T04:30:21.544Z,60.52
2022-08-27T04:32:55.342Z,60.61
2022-08-27T04:35:29.099Z,60.83
2022-08-27T04:38:02.923Z,60.80
2022-08-27T04:40:56.057Z,60.79
2022-08-27T04:43:32.066Z,60.76
2022-08-27T04:46:09.260Z,60.82
2022-08-27T04:48:46.068Z,60.72
2022-08-27T04:51:28.215Z,60.85
2022-08-27T04:54:03.115Z,60.89
2022-08-27T04:56:38.309Z,60.97
2022-08-27T04:59:13.385Z,60.90
2022-08-27T05:02:11.224Z,60.84
2022-08-27T05:04:45.254Z,60.72
2022-08-27T05:07:19.674Z,60.72
2022-08-27T05:09:55.928Z,60.74
2022-08-27T05:12:29.163Z,60.94
2022-08-27T05:15:02.994Z,60.46
2022-08-27T05:18:01.211Z,59.87
2022-08-27T05:20:35.743Z,59.92
2022-08-27T05:23:09.393Z,58.84
2022-08-27T05:25:52.555Z,58.24
2022-08-27T05:28:27.764Z,58.04
2022-08-27T05:31:10.232Z,57.64
2022-08-27T05:33:47.902Z,57.57
2022-08-27T05:36:23.208Z,57.58
2022-08-27T05:38:58.320Z,57.71
2022-08-27T05:41:33.989Z,57.59
2022-08-27T05:44:40.012Z,57.50
2022-08-27T05:47:23.324Z,57.30
2022-08-27T05:49:57.362Z,57.08
2022-08-27T05:52:41.342Z,56.84
2022-08-27T05:55:15.495Z,57.00
2022-08-27T05:57:48.921Z,56.21
2022-08-27T06:00:40.415Z,55.62
2022-08-27T06:03:17.423Z,54.61
2022-08-27T06:05:51.178Z,53.73
2022-08-27T06:08:25.269Z,53.40
2022-08-27T06:11:00.203Z,53.24
2022-08-27T06:13:34.568Z,53.31
2022-08-27T06:16:14.618Z,53.29
2022-08-27T06:18:49.859Z,53.17
2022-08-27T06:21:24.962Z,52.54
2022-08-27T06:23:58.943Z,51.92
2022-08-27T06:26:32.566Z,51.22
2022-08-27T06:29:10.250Z,50.75
2022-08-27T06:31:44.156Z,50.45
2022-08-27T06:34:21.033Z,49.39
2022-08-27T06:36:55.028Z,48.78
2022-08-27T06:39:31.733Z,48.07
2022-08-27T06:42:06.723Z,49.03
2022-08-27T06:44:40.582Z,47.59
2022-08-27T06:47:14.498Z,45.23
2022-08-27T06:49:48.383Z,43.21
2022-08-27T06:52:21.946Z,41.31
2022-08-27T06:54:55.980Z,39.19
2022-08-27T06:57:30.206Z,37.28
2022-08-27T07:00:05.046Z,34.93
2022-08-27T07:02:39.178Z,32.26
2022-08-27T07:05:13.481Z,32.01
2022-08-27T07:07:48.810Z,31.57
2022-08-27T07:10:22.471Z,29.96
2022-08-27T07:12:55.699Z,29.05
2022-08-27T07:15:29.480Z,27.96
2022-08-27T07:18:06.051Z,27.01
2022-08-27T07:20:41.673Z,26.44
2022-08-27T07:23:15.332Z,25.70
2022-08-27T07:25:48.601Z,24.94
2022-08-27T07:28:22.255Z,24.13
2022-08-27T07:30:55.943Z,23.27
2022-08-27T07:33:31.813Z,22.60
2022-08-27T07:36:05.500Z,22.13
2022-08-27T07:38:42.251Z,21.96
2022-08-27T07:41:16.312Z,20.54
2022-08-27T07:44:07.268Z,20.70
2022-08-27T07:46:42.575Z,21.46
2022-08-27T07:49:19.564Z,22.25
2022-08-27T07:51:55.958Z,22.29
2022-08-27T07:54:29.593Z,22.02
2022-08-27T07:57:02.823Z,22.47
2022-08-27T07:59:36.273Z,23.15
2022-08-27T08:02:09.675Z,23.54
2022-08-27T08:04:43.057Z,24.42
2022-08-27T08:07:16.449Z,25.15
2022-08-27T08:09:49.822Z,25.68
2022-08-27T08:12:26.574Z,26.20
2022-08-27T08:14:59.709Z,26.31
2022-08-27T08:17:38.347Z,26.61
2022-08-27T08:20:24.140Z,25.79
2022-08-27T08:23:04.470Z,25.08
2022-08-27T08:25:43.376Z,24.59
2022-08-27T08:28:16.730Z,24.45
2022-08-27T08:30:50.513Z,25.14
2022-08-27T08:33:24.635Z,25.67
2022-08-27T08:36:03.849Z,26.19
2022-08-27T08:38:38.021Z,26.51
2022-08-27T08:41:27.948Z,27.27
2022-08-27T08:44:10.379Z,27.46
2022-08-27T08:46:51.557Z,27.40
2022-08-27T08:49:37.263Z,27.28
2022-08-27T08:52:31.316Z,26.72
2022-08-27T08:55:16.180Z,26.56
2022-08-27T08:58:11.235Z,26.62
2022-08-27T09:00:56.589Z,27.01
2022-08-27T09:03:37.015Z,27.25
2022-08-27T09:06:21.581Z,27.58
2022-08-27T09:09:23.705Z,28.12
2022-08-27T09:12:15.898Z,28.34
2022-08-27T09:14:53.974Z,28.52
2022-08-27T09:17:33.868Z,29.17
2022-08-27T09:20:13.405Z,29.57
2022-08-27T09:22:59.244Z,29.99
2022-08-27T09:25:38.019Z,30.45
2022-08-27T09:28:39.005Z,30.90
2022-08-27T09:31:19.010Z,30.93
2022-08-27T09:33:55.789Z,31.05
2022-08-27T09:36:33.540Z,31.36
2022-08-27T09:39:09.935Z,31.58
2022-08-27T09:41:49.851Z,31.91
2022-08-27T09:44:28.943Z,31.90
2022-08-27T09:47:04.836Z,31.57
2022-08-27T09:49:41.967Z,31.42
2022-08-27T09:52:38.030Z,31.60
2022-08-27T09:55:34.477Z,31.54
2022-08-27T09:58:28.024Z,31.50
2022-08-27T10:01:07.348Z,31.31
2022-08-27T10:03:42.653Z,31.52
2022-08-27T10:06:16.272Z,31.48
2022-08-27T10:08:57.988Z,31.39
2022-08-27T10:11:36.302Z,31.51
2022-08-27T10:14:16.643Z,31.45
2022-08-27T10:17:04.088Z,31.57
2022-08-27T10:19:50.275Z,31.38
2022-08-27T10:22:38.371Z,31.52
2022-08-27T10:25:24.873Z,31.53
2022-08-27T10:28:07.152Z,31.62
2022-08-27T10:30:56.404Z,31.68
2022-08-27T10:33:46.690Z,31.91
2022-08-27T10:36:52.459Z,31.81
2022-08-27T10:39:40.563Z,32.15
2022-08-27T10:42:22.359Z,32.06
2022-08-27T10:45:06.036Z,32.15
2022-08-27T10:47:57.425Z,32.24
2022-08-27T10:50:41.189Z,32.22
2022-08-27T10:53:25.923Z,32.25
2022-08-27T10:56:13.907Z,32.15
2022-08-27T10:59:04.867Z,32.32
2022-08-27T11:01:53.868Z,32.09
2022-08-27T11:04:42.870Z,31.99
2022-08-27T11:07:24.293Z,32.07
2022-08-27T11:10:02.397Z,32.28
2022-08-27T11:13:01.242Z,31.59
2022-08-27T11:15:37.931Z,31.64
2022-08-27T11:18:18.129Z,31.14
2022-08-27T11:21:00.141Z,30.52
2022-08-27T11:23:43.849Z,29.77
2022-08-27T11:26:18.453Z,30.46
2022-08-27T11:28:57.591Z,30.23
2022-08-27T11:31:44.258Z,29.99
2022-08-27T11:34:23.957Z,29.63
2022-08-27T11:37:16.222Z,29.83
2022-08-27T11:40:05.933Z,30.03
2022-08-27T11:42:48.907Z,29.88
2022-08-27T11:45:31.322Z,29.55
2022-08-27T11:48:19.128Z,29.15
2022-08-27T11:51:02.626Z,28.95
2022-08-27T11:53:42.786Z,29.00
2022-08-27T11:56:43.539Z,27.88
2022-08-27T11:59:24.683Z,27.71
2022-08-27T12:02:22.902Z,27.57
2022-08-27T12:05:09.094Z,27.79
2022-08-27T12:07:46.528Z,26.98
2022-08-27T12:10:40.323Z,27.16
2022-08-27T12:13:24.729Z,27.13
2022-08-27T12:16:06.703Z,27.56
2022-08-27T12:19:02.797Z,27.30
2022-08-27T12:21:58.228Z,25.67
2022-08-27T12:24:50.401Z,24.22
2022-08-27T12:27:36.697Z,22.89
2022-08-27T12:30:24.759Z,22.34
2022-08-27T12:33:01.397Z,21.52
2022-08-27T12:35:44.778Z,22.48
2022-08-27T12:38:21.829Z,23.01
2022-08-27T12:41:04.065Z,23.54
2022-08-27T12:43:44.042Z,23.94
2022-08-27T12:46:20.827Z,23.87
2022-08-27T12:49:12.750Z,23.88
2022-08-27T12:52:05.046Z,24.31
2022-08-27T12:55:16.244Z,24.00
2022-08-27T12:57:58.436Z,24.52
2022-08-27T13:01:04.304Z,24.04
2022-08-27T13:03:45.116Z,22.57
2022-08-27T13:06:29.097Z,23.07
2022-08-27T13:09:11.329Z,23.68
2022-08-27T13:11:56.289Z,23.99
2022-08-27T13:14:37.971Z,24.15
2022-08-27T13:17:16.609Z,22.92
2022-08-27T13:19:59.423Z,22.59
2022-08-27T13:22:45.211Z,23.39
2022-08-27T13:25:27.936Z,23.69
2022-08-27T13:28:10.317Z,23.73
2022-08-27T13:30:47.011Z,23.86
2022-08-27T13:33:24.085Z,24.19
2022-08-27T13:36:03.928Z,24.45
2022-08-27T13:38:40.979Z,24.60
2022-08-27T13:41:37.081Z,24.76
2022-08-27T13:44:25.919Z,24.79
2022-08-27T13:47:18.876Z,24.95
2022-08-27T13:50:09.245Z,25.08
2022-08-27T13:52:58.739Z,24.64
2022-08-27T13:55:34.004Z,25.09
2022-08-27T13:58:25.388Z,25.23
2022-08-27T14:01:09.037Z,25.13
2022-08-27T14:03:52.631Z,25.11
2022-08-27T14:06:36.008Z,25.33
2022-08-27T14:09:18.513Z,25.68
2022-08-27T14:12:00.293Z,26.12
2022-08-27T14:14:37.971Z,25.80
2022-08-27T14:17:29.813Z,25.53
2022-08-27T14:20:09.302Z,25.80
2022-08-27T14:22:43.001Z,25.84
2022-08-27T14:25:22.476Z,25.88
2022-08-27T14:27:57.600Z,25.83
2022-08-27T14:30:31.784Z,25.27
2022-08-27T14:33:05.527Z,24.94
2022-08-27T14:35:40.007Z,24.93
2022-08-27T14:38:24.037Z,24.89
2022-08-27T14:41:00.000Z,24.78
2022-08-27T14:43:35.079Z,25.36
2022-08-27T14:46:14.161Z,25.36
2022-08-27T14:48:51.651Z,25.14
2022-08-27T14:51:28.237Z,25.44
2022-08-27T14:54:02.260Z,25.46
2022-08-27T14:56:35.640Z,25.66
2022-08-27T14:59:09.336Z,25.64
2022-08-27T15:01:43.141Z,25.71
2022-08-27T15:04:23.014Z,25.50
2022-08-27T15:06:56.884Z,25.68
2022-08-27T15:09:31.426Z,26.02
2022-08-27T15:12:08.293Z,26.19
2022-08-27T15:14:59.729Z,25.90
2022-08-27T15:17:34.998Z,26.12
2022-08-27T15:20:13.712Z,26.27
2022-08-27T15:22:55.284Z,26.30
2022-08-27T15:25:33.778Z,26.29
2022-08-27T15:28:08.233Z,26.47
2022-08-27T15:30:42.526Z,26.45
2022-08-27T15:33:16.226Z,26.59
2022-08-27T15:35:50.444Z,26.71
2022-08-27T15:38:24.102Z,26.61
2022-08-27T15:40:58.200Z,26.83
2022-08-27T15:43:32.092Z,27.02
2022-08-27T15:46:06.465Z,26.82
2022-08-27T15:48:40.483Z,26.79
2022-08-27T15:51:14.991Z,26.72
2022-08-27T15:53:48.320Z,27.09
2022-08-27T15:56:23.841Z,26.94
2022-08-27T15:58:57.668Z,27.46
2022-08-27T16:01:33.782Z,27.62
2022-08-27T16:04:07.947Z,27.41
2022-08-27T16:06:42.394Z,27.63
2022-08-27T16:09:18.952Z,26.90
2022-08-27T16:11:52.330Z,26.93
2022-08-27T16:14:29.096Z,27.19
2022-08-27T16:17:13.402Z,27.18
2022-08-27T16:19:47.157Z,27.28
2022-08-27T16:22:20.937Z,27.37
2022-08-27T16:24:54.708Z,27.44
2022-08-27T16:27:37.917Z,27.80
2022-08-27T16:30:14.460Z,27.91
2022-08-27T16:32:52.495Z,28.12
2022-08-27T16:35:26.150Z,28.03
2022-08-27T16:38:00.072Z,28.34
2022-08-27T16:40:40.489Z,28.42
2022-08-27T16:43:22.941Z,28.53
2022-08-27T16:46:17.577Z,29.12
2022-08-27T16:49:09.001Z,29.10
2022-08-27T16:51:46.436Z,29.26
2022-08-27T16:54:39.901Z,29.95
2022-08-27T16:57:13.876Z,30.08
2022-08-27T16:59:47.383Z,30.27
2022-08-27T17:02:30.557Z,30.56
2022-08-27T17:05:30.539Z,30.91
2022-08-27T17:08:02.452Z,31.00
2022-08-27T17:10:40.280Z,31.33
2022-08-27T17:13:15.904Z,31.42
2022-08-27T17:15:57.583Z,31.70
2022-08-27T17:18:32.306Z,31.88
2022-08-27T17:21:08.638Z,31.87
2022-08-27T17:23:47.832Z,32.20
2022-08-27T17:26:22.066Z,32.23
2022-08-27T17:29:04.254Z,32.29
2022-08-27T17:31:43.224Z,32.43
2022-08-27T17:34:21.257Z,32.64
2022-08-27T17:36:55.388Z,32.58
2022-08-27T17:39:31.267Z,32.88
2022-08-27T17:42:26.426Z,33.10
2022-08-27T17:45:11.023Z,33.27
2022-08-27T17:48:06.146Z,33.60
2022-08-27T17:50:47.728Z,33.68
2022-08-27T17:53:21.457Z,33.92
2022-08-27T17:55:55.676Z,33.78
2022-08-27T17:58:29.596Z,33.88
2022-08-27T18:01:03.587Z,33.91
2022-08-27T18:03:47.582Z,34.28
2022-08-27T18:06:43.222Z,34.42
2022-08-27T18:09:17.025Z,34.32
2022-08-27T18:11:51.430Z,34.31
2022-08-27T18:14:28.374Z,34.64
2022-08-27T18:17:02.002Z,34.52
2022-08-27T18:19:37.820Z,34.57
2022-08-27T18:22:12.105Z,34.98
2022-08-27T18:24:46.424Z,35.01
2022-08-27T18:27:28.124Z,35.10
2022-08-27T18:30:02.489Z,35.30
2022-08-27T18:32:35.850Z,35.38
2022-08-27T18:35:15.384Z,35.42
2022-08-27T18:37:48.858Z,35.55
2022-08-27T18:40:26.230Z,35.68
2022-08-27T18:43:04.150Z,35.56
2022-08-27T18:45:38.158Z,35.75
2022-08-27T18:48:17.030Z,35.78
2022-08-27T18:50:54.782Z,35.82
2022-08-27T18:53:40.056Z,35.95
2022-08-27T18:56:21.339Z,35.88
2022-08-27T18:59:04.603Z,36.08
2022-08-27T19:01:38.027Z,35.89
2022-08-27T19:04:16.861Z,35.95
2022-08-27T19:06:51.031Z,36.17
2022-08-27T19:09:24.849Z,36.26
2022-08-27T19:11:58.542Z,36.25
2022-08-27T19:14:32.709Z,36.36
2022-08-27T19:17:06.741Z,36.57
2022-08-27T19:19:40.162Z,36.54
2022-08-27T19:22:13.751Z,36.62
2022-08-27T19:24:48.182Z,36.32
2022-08-27T19:27:25.118Z,35.82
2022-08-27T19:29:59.738Z,36.31
2022-08-27T19:32:33.477Z,36.05
2022-08-27T19:35:08.348Z,36.17
2022-08-27T19:37:52.588Z,36.35
2022-08-27T19:40:36.531Z,36.49
2022-08-27T19:43:10.853Z,36.08
2022-08-27T19:45:44.990Z,36.44
2022-08-27T19:48:18.679Z,36.28
2022-08-27T19:50:52.511Z,36.42
2022-08-27T19:53:29.523Z,36.69
2022-08-27T19:56:10.444Z,36.84
2022-08-27T19:58:44.979Z,37.01
2022-08-27T20:01:18.973Z,37.18
2022-08-27T20:03:52.661Z,37.47
2022-08-27T20:06:31.978Z,37.53
2022-08-27T20:09:16.059Z,37.02
2022-08-27T20:11:50.919Z,37.37
2022-08-27T20:14:25.351Z,37.26
2022-08-27T20:17:01.749Z,37.37
2022-08-27T20:19:36.360Z,37.44
2022-08-27T20:22:10.085Z,37.28
2022-08-27T20:24:43.383Z,37.76
2022-08-27T20:27:17.007Z,37.60
2022-08-27T20:29:50.681Z,37.96
2022-08-27T20:32:27.993Z,37.89
2022-08-27T20:35:03.525Z,37.83
2022-08-27T20:37:41.982Z,38.35
2022-08-27T20:40:19.736Z,38.40
2022-08-27T20:42:53.637Z,38.32
2022-08-27T20:45:27.994Z,38.52
2022-08-27T20:48:12.459Z,39.35
2022-08-27T20:50:45.995Z,39.69
2022-08-27T20:53:19.747Z,40.22
2022-08-27T20:56:13.626Z,39.99
2022-08-27T20:59:05.092Z,39.97
2022-08-27T21:01:39.339Z,39.90
2022-08-27T21:04:13.096Z,39.72
2022-08-27T21:06:46.820Z,39.69
2022-08-27T21:09:20.112Z,39.44
2022-08-27T21:11:54.147Z,39.66
2022-08-27T21:14:27.856Z,39.67
2022-08-27T21:17:01.707Z,39.78
2022-08-27T21:19:38.562Z,39.64
2022-08-27T21:22:11.948Z,39.70
2022-08-27T21:24:46.617Z,39.53
2022-08-27T21:27:22.230Z,39.79
2022-08-27T21:29:56.191Z,39.68
2022-08-27T21:32:29.862Z,39.94
2022-08-27T21:35:03.193Z,40.19
2022-08-27T21:37:48.517Z,40.18
2022-08-27T21:40:23.153Z,40.57
2022-08-27T21:42:57.991Z,40.55
2022-08-27T21:45:31.850Z,40.52
2022-08-27T21:48:06.067Z,40.53
2022-08-27T21:50:40.298Z,40.38
2022-08-27T21:53:14.077Z,40.27
2022-08-27T21:55:48.671Z,39.76
2022-08-27T21:58:26.878Z,39.46
2022-08-27T22:01:02.085Z,39.36
2022-08-27T22:03:36.932Z,39.47
2022-08-27T22:06:13.650Z,39.30
2022-08-27T22:08:47.648Z,39.53
2022-08-27T22:11:30.787Z,39.31
2022-08-27T22:14:04.571Z,39.08
2022-08-27T22:16:41.120Z,39.43
2022-08-27T22:19:14.719Z,39.51
2022-08-27T22:21:48.442Z,39.62
2022-08-27T22:24:21.998Z,39.18
2022-08-27T22:26:55.913Z,39.25
2022-08-27T22:29:32.053Z,39.57
2022-08-27T22:32:07.990Z,39.35
2022-08-27T22:34:41.513Z,39.57
2022-08-27T22:37:15.114Z,39.59
2022-08-27T22:39:48.995Z,39.41
2022-08-27T22:42:23.291Z,39.53
2022-08-27T22:44:59.427Z,39.68
2022-08-27T22:47:32.906Z,39.69
2022-08-27T22:50:09.367Z,39.98
2022-08-27T22:52:46.798Z,40.04
2022-08-27T22:55:22.256Z,40.00
2022-08-27T22:57:57.069Z,40.11
2022-08-27T23:00:32.148Z,40.21
2022-08-27T23:03:07.418Z,40.12
2022-08-27T23:05:41.982Z,40.23
2022-08-27T23:08:20.088Z,40.22
2022-08-27T23:10:55.186Z,40.03
2022-08-27T23:13:29.980Z,40.04
2022-08-27T23:16:04.565Z,40.27
2022-08-27T23:18:42.071Z,40.32
2022-08-27T23:21:15.786Z,40.43
2022-08-27T23:23:53.367Z,40.44
2022-08-27T23:26:44.858Z,40.59
2022-08-27T23:29:18.546Z,40.73
2022-08-27T23:31:52.723Z,40.99
2022-08-27T23:34:26.399Z,41.01
2022-08-27T23:36:59.971Z,41.25
2022-08-27T23:39:33.699Z,41.35
2022-08-27T23:42:08.259Z,41.45
2022-08-27T23:44:42.069Z,41.62
2022-08-27T23:47:18.556Z,41.46
2022-08-27T23:49:52.339Z,41.73
2022-08-27T23:52:25.950Z,41.86
2022-08-27T23:54:59.818Z,41.63
2022-08-27T23:57:58.006Z,41.85
